Time;durP1;ratioP1;P1;durP2;ratioP2;P2;SDS_P1;SDS_P2;PMS_P1;PMS_P2;Temp;Humidity;BMP_temperature;BMP_pressure;BME280_temperature;BME280_humidity;BME280_pressure;Samples;Min_cycle;Max_cycle;Signal;HPM_P1;HPM_P2
2021/11/22 00:01:27;;;;;;;4.93;1.27;;;19.70;44.90;;;;;;5113673;28;20024;-55
2021/11/22 00:03:53;;;;;;;3.60;1.40;;;19.70;44.90;;;;;;5113495;28;20035;-49
2021/11/22 00:06:19;;;;;;;4.15;1.35;;;19.70;44.90;;;;;;5112862;28;20376;-49
2021/11/22 00:08:44;;;;;;;5.28;1.40;;;19.70;44.90;;;;;;5112133;28;20040;-49
2021/11/22 00:11:10;;;;;;;5.55;1.52;;;19.60;44.90;;;;;;5113243;28;20115;-49
2021/11/22 00:13:35;;;;;;;5.10;1.40;;;19.60;44.90;;;;;;5113796;28;20050;-50
2021/11/22 00:16:01;;;;;;;3.13;0.95;;;19.60;44.90;;;;;;5113251;28;20020;-50
2021/11/22 00:18:27;;;;;;;3.15;1.15;;;19.60;44.90;;;;;;5113387;28;20028;-53
2021/11/22 00:20:52;;;;;;;4.07;1.10;;;19.60;44.80;;;;;;5113366;28;20019;-51
2021/11/22 00:23:18;;;;;;;4.70;1.52;;;19.70;44.80;;;;;;5111976;28;20099;-50
2021/11/22 00:25:43;;;;;;;3.72;1.30;;;19.60;44.80;;;;;;5113099;28;20498;-48
2021/11/22 00:28:09;;;;;;;3.85;1.20;;;19.60;44.90;;;;;;5113106;28;20019;-50
2021/11/22 00:30:34;;;;;;;7.38;1.50;;;19.60;44.70;;;;;;5113101;28;20063;-51
2021/11/22 00:33:02;;;;;;;4.53;1.35;;;19.60;44.70;;;;;;5113388;28;20383;-51
2021/11/22 00:35:33;;;;;;;4.57;1.20;;;19.60;44.70;;;;;;5113395;28;20028;-50
2021/11/22 00:38:06;;;;;;;5.53;1.40;;;19.60;44.80;;;;;;5113150;28;20016;-49
2021/11/22 00:40:33;;;;;;;5.00;1.13;;;19.60;44.70;;;;;;5113319;28;20088;-52
2021/11/22 00:42:59;;;;;;;4.45;1.45;;;19.60;44.60;;;;;;5112793;28;20089;-52
2021/11/22 00:45:27;;;;;;;3.45;1.13;;;19.60;44.60;;;;;;5113280;28;20039;-54
2021/11/22 00:47:54;;;;;;;5.45;1.40;;;19.60;44.70;;;;;;5113232;28;20054;-54
2021/11/22 00:50:20;;;;;;;5.55;1.40;;;19.60;44.40;;;;;;5113234;28;20031;-52
2021/11/22 00:52:45;;;;;;;3.78;1.25;;;19.60;44.60;;;;;;5113252;28;20024;-50
2021/11/22 00:55:11;;;;;;;3.42;1.20;;;19.50;44.50;;;;;;5113205;28;20028;-52
2021/11/22 00:57:37;;;;;;;3.75;1.10;;;19.50;44.50;;;;;;5113148;28;20023;-53
2021/11/22 01:00:06;;;;;;;3.55;1.20;;;19.50;44.50;;;;;;5112981;28;20020;-54
2021/11/22 01:02:32;;;;;;;4.68;1.30;;;19.50;44.50;;;;;;5112767;28;20551;-53
2021/11/22 01:04:57;;;;;;;4.60;1.38;;;19.50;44.40;;;;;;5112726;28;20063;-50
2021/11/22 01:07:23;;;;;;;5.00;1.17;;;19.50;44.40;;;;;;5112768;28;20069;-54
2021/11/22 01:09:48;;;;;;;5.00;1.30;;;19.50;44.40;;;;;;5112761;28;20144;-55
2021/11/22 01:12:14;;;;;;;2.63;1.15;;;19.50;44.40;;;;;;5112983;28;20030;-48
2021/11/22 01:14:39;;;;;;;4.20;1.42;;;19.50;44.40;;;;;;5112955;28;20450;-51
2021/11/22 01:17:05;;;;;;;3.67;1.20;;;19.50;44.40;;;;;;5112734;28;20020;-50
2021/11/22 01:19:31;;;;;;;4.57;1.45;;;19.50;44.40;;;;;;5114614;28;20024;-54
2021/11/22 01:21:57;;;;;;;4.43;1.40;;;19.50;44.40;;;;;;5116318;28;20019;-51
2021/11/22 01:24:23;;;;;;;3.85;1.48;;;19.50;44.40;;;;;;5116744;28;20071;-50
2021/11/22 01:26:48;;;;;;;5.78;1.20;;;19.50;44.40;;;;;;5115177;28;20407;-50
2021/11/22 01:29:14;;;;;;;4.03;1.20;;;19.50;44.40;;;;;;5116410;28;20050;-49
2021/11/22 01:31:39;;;;;;;3.63;1.23;;;19.50;44.50;;;;;;5116148;28;20072;-51
2021/11/22 01:34:05;;;;;;;4.47;1.65;;;19.50;44.40;;;;;;5116175;28;20028;-50
2021/11/22 01:36:30;;;;;;;4.10;1.40;;;19.50;44.30;;;;;;5116118;28;20187;-51
2021/11/22 01:38:56;;;;;;;3.40;1.10;;;19.50;44.30;;;;;;5116263;28;20070;-50
2021/11/22 01:41:22;;;;;;;4.40;1.40;;;19.50;44.30;;;;;;5115992;28;20058;-53
2021/11/22 01:43:47;;;;;;;3.90;1.30;;;19.50;44.40;;;;;;5116102;28;20028;-52
2021/11/22 01:46:18;;;;;;;3.53;1.20;;;19.50;44.30;;;;;;5116181;28;20110;-52
2021/11/22 01:48:43;;;;;;;4.18;1.38;;;19.50;44.40;;;;;;5115950;28;20051;-52
2021/11/22 01:51:09;;;;;;;3.50;1.40;;;19.50;44.40;;;;;;5115760;28;20051;-48
2021/11/22 01:53:35;;;;;;;3.38;1.00;;;19.50;44.30;;;;;;5114454;28;20027;-50
2021/11/22 01:56:00;;;;;;;3.20;1.00;;;19.50;44.30;;;;;;5115899;28;20046;-48
2021/11/22 01:58:26;;;;;;;3.20;1.13;;;19.50;44.30;;;;;;5115833;28;20063;-53
2021/11/22 02:00:54;;;;;;;3.33;0.88;;;19.50;44.30;;;;;;5114628;28;20524;-49
2021/11/22 02:03:20;;;;;;;4.55;1.27;;;19.50;44.20;;;;;;5115709;28;20028;-54
2021/11/22 02:05:50;;;;;;;4.25;1.40;;;19.50;44.20;;;;;;5115909;28;20066;-53
2021/11/22 02:08:16;;;;;;;4.05;1.40;;;19.50;44.30;;;;;;5115744;28;20034;-54
2021/11/22 02:10:42;;;;;;;1.75;0.82;;;19.50;44.20;;;;;;5115386;28;20027;-53
2021/11/22 02:13:08;;;;;;;3.58;1.15;;;19.50;44.20;;;;;;5115629;28;20020;-53
2021/11/22 02:15:33;;;;;;;5.78;1.35;;;19.50;44.20;;;;;;5114322;28;20032;-50
2021/11/22 02:17:59;;;;;;;2.83;1.00;;;19.50;44.20;;;;;;5115512;28;20530;-48
2021/11/22 02:20:28;;;;;;;3.05;1.30;;;19.50;44.20;;;;;;5115242;28;20444;-48
2021/11/22 02:22:58;;;;;;;3.53;1.10;;;19.50;44.10;;;;;;5115094;28;20484;-48
2021/11/22 02:25:27;;;;;;;2.80;1.10;;;19.50;44.10;;;;;;5115357;28;20039;-49
2021/11/22 02:27:53;;;;;;;2.80;1.08;;;19.50;44.10;;;;;;5115303;28;20020;-49
2021/11/22 02:30:21;;;;;;;2.78;1.15;;;19.50;44.20;;;;;;5114549;27;20023;-50
2021/11/22 02:32:47;;;;;;;3.08;0.90;;;19.50;44.10;;;;;;5115247;28;20020;-55
2021/11/22 02:35:20;;;;;;;3.80;1.15;;;19.50;44.20;;;;;;5114945;28;20507;-53
2021/11/22 02:37:46;;;;;;;3.72;1.45;;;19.50;44.20;;;;;;5114875;28;20027;-48
2021/11/22 02:40:13;;;;;;;3.45;1.00;;;19.50;44.10;;;;;;5114814;28;20051;-49
2021/11/22 02:42:42;;;;;;;3.47;1.30;;;19.50;44.20;;;;;;5114640;28;20047;-49
2021/11/22 02:45:13;;;;;;;4.50;1.17;;;19.50;44.10;;;;;;5114671;28;20028;-51
2021/11/22 02:47:41;;;;;;;3.83;1.15;;;19.50;44.10;;;;;;5114617;28;20421;-48
2021/11/22 02:50:08;;;;;;;2.88;1.20;;;19.50;44.00;;;;;;5114897;28;20027;-49
2021/11/22 02:52:35;;;;;;;2.53;0.90;;;19.50;44.00;;;;;;5114581;28;20059;-48
2021/11/22 02:55:01;;;;;;;2.85;1.00;;;19.50;43.90;;;;;;5114660;28;20285;-51
2021/11/22 02:57:26;;;;;;;2.95;1.10;;;19.50;44.00;;;;;;5114786;28;20111;-50
2021/11/22 02:59:52;;;;;;;3.97;1.23;;;19.50;44.00;;;;;;5114486;28;20050;-48
2021/11/22 03:02:18;;;;;;;4.72;1.25;;;19.50;44.00;;;;;;5113069;28;20062;-48
2021/11/22 03:04:44;;;;;;;3.33;1.13;;;19.50;43.90;;;;;;5114460;28;20038;-48
2021/11/22 03:07:11;;;;;;;2.38;0.90;;;19.50;43.90;;;;;;5114343;28;20023;-48
2021/11/22 03:09:37;;;;;;;2.67;1.00;;;19.50;43.90;;;;;;5114190;28;20034;-50
2021/11/22 03:12:06;;;;;;;3.30;1.00;;;19.50;43.90;;;;;;5114790;28;20019;-50
2021/11/22 03:14:33;;;;;;;1.92;0.95;;;19.50;43.90;;;;;;5114134;28;20027;-50
2021/11/22 03:16:59;;;;;;;3.72;1.00;;;19.50;43.90;;;;;;5114000;28;20409;-52
2021/11/22 03:19:25;;;;;;;2.28;0.90;;;19.50;43.80;;;;;;5114256;28;20019;-49
2021/11/22 03:21:51;;;;;;;3.05;1.10;;;19.50;43.80;;;;;;5114181;28;20368;-49
2021/11/22 03:24:18;;;;;;;2.10;0.90;;;19.50;43.90;;;;;;5113960;28;20043;-51
2021/11/22 03:26:44;;;;;;;2.15;0.80;;;19.50;43.90;;;;;;5114538;28;20065;-50
2021/11/22 03:29:10;;;;;;;2.55;0.80;;;19.50;43.70;;;;;;5113909;28;20076;-49
2021/11/22 03:31:37;;;;;;;2.75;0.95;;;19.50;43.70;;;;;;5114128;28;20401;-54
2021/11/22 03:34:04;;;;;;;2.33;1.02;;;19.50;43.70;;;;;;5113677;28;20511;-51
2021/11/22 03:36:31;;;;;;;1.83;0.68;;;19.50;43.60;;;;;;5114100;28;20023;-50
2021/11/22 03:38:58;;;;;;;2.22;0.77;;;19.50;43.60;;;;;;5113804;28;20024;-50
2021/11/22 03:41:24;;;;;;;2.45;1.00;;;19.50;43.70;;;;;;5112859;28;20118;-50
2021/11/22 03:43:55;;;;;;;2.95;1.05;;;19.50;43.60;;;;;;5113857;28;20024;-49
2021/11/22 03:46:21;;;;;;;2.20;0.68;;;19.50;43.60;;;;;;5113865;28;20398;-50
2021/11/22 03:48:47;;;;;;;3.42;1.00;;;19.50;43.60;;;;;;5113774;28;20015;-52
2021/11/22 03:51:13;;;;;;;1.65;0.68;;;19.50;43.50;;;;;;5113485;28;20600;-49
2021/11/22 03:53:39;;;;;;;1.33;0.70;;;19.50;43.50;;;;;;5113695;28;20107;-51
2021/11/22 03:56:05;;;;;;;2.95;0.90;;;19.50;43.60;;;;;;5113846;28;20118;-50
2021/11/22 03:58:31;;;;;;;3.42;1.00;;;19.50;43.50;;;;;;5113534;28;20142;-50
2021/11/22 04:00:56;;;;;;;1.98;0.90;;;19.50;43.50;;;;;;5113736;28;20047;-48
2021/11/22 04:03:22;;;;;;;2.92;0.98;;;19.50;43.60;;;;;;5113472;28;20105;-48
2021/11/22 04:05:48;;;;;;;4.40;1.20;;;19.50;43.60;;;;;;5113613;28;20552;-49
2021/11/22 04:08:15;;;;;;;2.45;1.00;;;19.50;43.60;;;;;;5113404;28;20034;-50
2021/11/22 04:10:41;;;;;;;2.58;0.90;;;19.40;43.60;;;;;;5113377;28;20022;-49
2021/11/22 04:13:07;;;;;;;1.85;0.80;;;19.50;43.50;;;;;;5113619;28;20070;-49
2021/11/22 04:15:35;;;;;;;2.45;0.70;;;19.50;43.50;;;;;;5113577;28;20047;-47
2021/11/22 04:18:00;;;;;;;2.78;0.90;;;19.50;43.50;;;;;;5112039;28;20390;-50
2021/11/22 04:20:26;;;;;;;3.45;0.93;;;19.50;43.60;;;;;;5113517;28;20020;-49
2021/11/22 04:22:52;;;;;;;1.95;0.80;;;19.50;43.50;;;;;;5112356;28;20034;-49
2021/11/22 04:25:19;;;;;;;3.47;0.95;;;19.50;43.50;;;;;;5113227;28;20028;-49
2021/11/22 04:27:46;;;;;;;4.25;1.10;;;19.50;43.50;;;;;;5113446;28;20062;-48
2021/11/22 04:30:12;;;;;;;2.50;1.35;;;19.50;43.50;;;;;;5113457;28;20051;-49
2021/11/22 04:32:38;;;;;;;2.90;0.98;;;19.40;43.60;;;;;;5113233;28;20032;-51
2021/11/22 04:35:06;;;;;;;3.28;0.98;;;19.50;43.50;;;;;;5113465;28;20374;-49
2021/11/22 04:37:33;;;;;;;2.58;0.90;;;19.50;43.50;;;;;;5113208;28;20034;-50
2021/11/22 04:39:59;;;;;;;1.75;0.63;;;19.40;43.60;;;;;;5113104;28;20386;-50
2021/11/22 04:42:25;;;;;;;1.17;0.70;;;19.40;43.50;;;;;;5112932;28;20062;-48
2021/11/22 04:44:51;;;;;;;1.65;0.82;;;19.50;43.50;;;;;;5112954;28;20035;-53
2021/11/22 04:47:20;;;;;;;2.03;0.80;;;19.40;43.50;;;;;;5112949;28;20024;-48
2021/11/22 04:49:47;;;;;;;2.63;0.95;;;19.40;43.30;;;;;;5113274;28;20028;-52
2021/11/22 04:52:14;;;;;;;3.60;0.63;;;19.50;43.30;;;;;;5113041;28;20097;-49
2021/11/22 04:54:40;;;;;;;2.67;0.80;;;19.40;43.40;;;;;;5116853;28;20544;-49
2021/11/22 04:57:06;;;;;;;1.90;0.80;;;19.40;43.40;;;;;;5117084;28;20020;-49
2021/11/22 04:59:33;;;;;;;5.10;1.10;;;19.40;43.40;;;;;;5116888;28;20406;-52
2021/11/22 05:01:58;;;;;;;1.65;0.90;;;19.40;43.30;;;;;;5116860;28;20035;-54
2021/11/22 05:04:24;;;;;;;3.22;0.70;;;19.40;43.40;;;;;;5116786;28;20063;-50
2021/11/22 05:06:50;;;;;;;2.42;0.80;;;19.50;43.40;;;;;;5116933;28;20052;-48
2021/11/22 05:09:15;;;;;;;2.13;0.90;;;19.50;43.30;;;;;;5116591;28;20471;-53
2021/11/22 05:11:43;;;;;;;2.65;0.70;;;19.40;43.30;;;;;;5116795;28;20027;-50
2021/11/22 05:14:11;;;;;;;1.80;0.80;;;19.40;43.30;;;;;;5116762;28;20103;-51
2021/11/22 05:16:38;;;;;;;1.58;0.73;;;19.40;43.30;;;;;;5116568;28;20096;-48
2021/11/22 05:19:04;;;;;;;1.55;0.60;;;19.50;43.30;;;;;;5116796;28;20034;-52
2021/11/22 05:21:31;;;;;;;3.00;0.85;;;19.50;43.20;;;;;;5116338;28;20015;-48
2021/11/22 05:24:01;;;;;;;2.50;1.02;;;19.50;43.20;;;;;;5116472;28;20043;-48
2021/11/22 05:26:29;;;;;;;2.25;0.90;;;19.50;43.30;;;;;;5116578;28;20043;-48
2021/11/22 05:28:54;;;;;;;2.30;0.60;;;19.50;43.20;;;;;;5116497;28;20073;-49
2021/11/22 05:31:20;;;;;;;3.40;0.60;;;19.50;43.10;;;;;;5116202;28;20023;-48
2021/11/22 05:33:45;;;;;;;1.10;0.60;;;19.60;43.20;;;;;;5116209;28;20022;-50
2021/11/22 05:36:11;;;;;;;2.78;0.90;;;19.60;43.10;;;;;;5116384;28;20031;-48
2021/11/22 05:38:37;;;;;;;3.63;1.05;;;19.60;43.00;;;;;;5116091;28;20125;-49
2021/11/22 05:41:02;;;;;;;1.50;0.60;;;19.60;43.00;;;;;;5116058;28;20425;-49
2021/11/22 05:43:28;;;;;;;2.92;0.88;;;19.60;43.00;;;;;;5115864;28;20082;-50
2021/11/22 05:45:53;;;;;;;2.72;0.77;;;19.70;42.90;;;;;;5115859;28;20351;-49
2021/11/22 05:48:19;;;;;;;2.90;0.80;;;19.70;42.90;;;;;;5115942;28;20474;-49
2021/11/22 05:50:51;;;;;;;3.80;0.93;;;19.70;42.90;;;;;;5115849;28;20019;-49
2021/11/22 05:53:18;;;;;;;1.85;0.70;;;19.70;42.90;;;;;;5116018;28;20024;-49
2021/11/22 05:55:44;;;;;;;1.08;0.55;;;19.70;42.90;;;;;;5115724;28;20028;-52
2021/11/22 05:58:13;;;;;;;2.22;0.68;;;19.70;42.90;;;;;;5115884;28;20030;-49
2021/11/22 06:00:39;;;;;;;0.98;0.45;;;19.70;43.00;;;;;;5116074;28;20027;-49
2021/11/22 06:03:05;;;;;;;1.25;0.57;;;19.70;42.90;;;;;;5115409;28;20221;-51
2021/11/22 06:05:31;;;;;;;2.40;0.95;;;19.70;42.90;;;;;;5114635;28;20375;-49
2021/11/22 06:07:56;;;;;;;3.33;0.70;;;19.70;42.80;;;;;;5115175;28;20042;-50
2021/11/22 06:10:22;;;;;;;2.35;0.57;;;19.70;42.70;;;;;;5115472;28;20031;-51
2021/11/22 06:12:47;;;;;;;1.48;0.52;;;19.70;42.80;;;;;;5115410;28;20076;-50
2021/11/22 06:15:13;;;;;;;1.67;0.60;;;19.80;42.80;;;;;;5115370;28;20016;-49
2021/11/22 06:17:38;;;;;;;1.83;0.73;;;19.80;42.80;;;;;;5113900;28;20470;-50
2021/11/22 06:20:06;;;;;;;2.38;0.70;;;19.80;42.80;;;;;;5113646;28;20069;-49
2021/11/22 06:22:31;;;;;;;1.77;0.65;;;19.80;42.80;;;;;;5115416;28;20448;-49
2021/11/22 06:24:57;;;;;;;1.05;0.45;;;19.80;42.70;;;;;;5114945;28;20063;-50
2021/11/22 06:27:24;;;;;;;2.72;0.90;;;19.80;42.70;;;;;;5115486;28;20059;-48
2021/11/22 06:29:51;;;;;;;1.25;0.60;;;19.80;42.80;;;;;;5115260;28;20039;-53
2021/11/22 06:32:16;;;;;;;1.65;0.70;;;19.80;42.80;;;;;;5114996;28;20023;-48
2021/11/22 06:34:42;;;;;;;2.13;0.60;;;19.80;42.80;;;;;;5114755;28;20494;-48
2021/11/22 06:37:09;;;;;;;2.60;0.70;;;19.80;42.70;;;;;;5115084;28;20031;-52
2021/11/22 06:39:35;;;;;;;1.95;0.75;;;19.80;42.70;;;;;;5115075;28;20019;-49
2021/11/22 06:42:01;;;;;;;2.03;0.73;;;19.80;42.60;;;;;;5114583;28;20274;-52
2021/11/22 06:44:26;;;;;;;1.65;0.65;;;19.80;42.70;;;;;;5114743;28;20478;-49
2021/11/22 06:46:52;;;;;;;1.45;0.60;;;19.80;42.80;;;;;;5114891;28;20470;-52
2021/11/22 06:49:19;;;;;;;1.38;0.68;;;19.80;42.60;;;;;;5114518;28;20035;-52
2021/11/22 06:51:46;;;;;;;0.82;0.43;;;19.80;42.60;;;;;;5114452;28;20038;-50
2021/11/22 06:54:12;;;;;;;2.58;0.68;;;19.80;42.50;;;;;;5114715;28;20027;-50
2021/11/22 06:56:37;;;;;;;2.33;0.80;;;19.80;42.60;;;;;;5114435;28;20019;-48
2021/11/22 06:59:03;;;;;;;1.77;0.57;;;19.80;42.60;;;;;;5114377;28;20107;-50
2021/11/22 07:01:29;;;;;;;1.40;0.50;;;19.90;42.70;;;;;;5114667;28;20024;-50
2021/11/22 07:03:55;;;;;;;0.88;0.50;;;19.80;42.70;;;;;;5114278;28;20051;-49
2021/11/22 07:06:20;;;;;;;2.38;0.73;;;19.80;42.60;;;;;;5114254;28;20530;-51
2021/11/22 07:08:46;;;;;;;1.92;0.55;;;19.90;42.60;;;;;;5112876;28;20022;-49
2021/11/22 07:11:12;;;;;;;1.83;0.55;;;19.90;42.60;;;;;;5110255;28;20139;-49
2021/11/22 07:13:38;;;;;;;2.05;0.70;;;19.90;42.60;;;;;;5112936;28;20015;-49
2021/11/22 07:16:04;;;;;;;3.13;1.00;;;19.90;42.50;;;;;;5100537;28;20036;-50
2021/11/22 07:18:30;;;;;;;2.10;0.68;;;19.90;42.50;;;;;;5114013;28;20023;-48
2021/11/22 07:20:56;;;;;;;2.15;0.60;;;20.00;42.50;;;;;;5113506;28;20153;-48
2021/11/22 07:23:23;;;;;;;0.50;0.40;;;19.90;42.30;;;;;;5113363;28;20027;-48
2021/11/22 07:25:50;;;;;;;1.42;0.50;;;20.00;42.30;;;;;;5104649;27;20035;-50
2021/11/22 07:28:15;;;;;;;3.75;0.70;;;19.90;42.40;;;;;;5118306;27;20019;-50
2021/11/22 07:30:41;;;;;;;0.90;0.30;;;19.90;42.30;;;;;;5099684;28;20036;-49
2021/11/22 07:33:08;;;;;;;4.50;0.65;;;20.00;42.30;;;;;;5102460;28;20098;-49
2021/11/22 07:35:34;;;;;;;3.15;0.47;;;20.00;42.50;;;;;;5093338;27;20923;-50
2021/11/22 07:37:59;;;;;;;1.48;0.60;;;20.00;42.40;;;;;;5096147;28;20026;-51
2021/11/22 07:40:25;;;;;;;1.63;0.68;;;20.00;42.60;;;;;;5110446;28;20032;-49
2021/11/22 07:42:52;;;;;;;3.10;0.60;;;20.00;42.50;;;;;;5105511;28;20425;-49
2021/11/22 07:45:19;;;;;;;1.45;0.40;;;20.00;42.40;;;;;;5100993;28;20118;-51
2021/11/22 07:47:46;;;;;;;1.15;0.50;;;20.00;42.50;;;;;;5105491;28;20044;-49
2021/11/22 07:50:12;;;;;;;2.05;0.63;;;20.00;42.60;;;;;;5099193;28;20105;-52
2021/11/22 07:52:37;;;;;;;0.77;0.50;;;20.00;42.50;;;;;;5110490;28;20027;-51
2021/11/22 07:55:04;;;;;;;2.72;0.80;;;20.00;42.50;;;;;;5105528;28;20027;-51
2021/11/22 07:57:29;;;;;;;1.65;0.55;;;20.00;42.60;;;;;;5103702;28;20091;-48
2021/11/22 07:59:55;;;;;;;1.42;0.50;;;20.00;42.70;;;;;;5105731;28;20713;-52
2021/11/22 08:02:21;;;;;;;1.20;0.50;;;20.10;42.60;;;;;;5107683;27;20080;-51
2021/11/22 08:04:46;;;;;;;0.85;0.30;;;20.00;42.50;;;;;;5105535;28;20118;-49
2021/11/22 08:07:17;;;;;;;2.10;0.60;;;20.10;42.50;;;;;;5102781;28;20484;-50
2021/11/22 08:09:56;;;;;;;1.48;0.57;;;20.10;42.50;;;;;;5111224;28;20680;-50
2021/11/22 08:12:26;;;;;;;2.15;0.65;;;20.10;42.60;;;;;;5106943;28;20028;-49
2021/11/22 08:14:53;;;;;;;1.92;0.65;;;20.10;42.50;;;;;;5089073;28;20028;-51
2021/11/22 08:17:19;;;;;;;3.88;0.70;;;20.10;42.60;;;;;;5096912;28;20137;-52
2021/11/22 08:19:45;;;;;;;2.85;0.80;;;20.10;42.60;;;;;;5110423;28;20035;-53
2021/11/22 08:22:10;;;;;;;1.00;0.47;;;20.10;42.70;;;;;;5111577;28;20061;-50
2021/11/22 08:24:36;;;;;;;2.47;0.65;;;20.10;42.60;;;;;;5103544;28;20031;-51
2021/11/22 08:27:02;;;;;;;3.08;0.60;;;20.10;42.60;;;;;;5103714;28;20032;-49
2021/11/22 08:29:28;;;;;;;6.75;0.75;;;20.10;42.60;;;;;;5115272;27;20117;-48
2021/11/22 08:31:53;;;;;;;2.17;0.60;;;20.10;42.60;;;;;;5115668;27;20027;-50
2021/11/22 08:34:19;;;;;;;1.20;0.45;;;20.10;42.70;;;;;;5115803;28;20103;-48
2021/11/22 08:36:45;;;;;;;2.05;0.47;;;20.10;42.70;;;;;;5101767;28;20413;-49
2021/11/22 08:39:11;;;;;;;2.03;0.65;;;20.10;42.60;;;;;;5107375;27;20080;-52
2021/11/22 08:41:36;;;;;;;0.82;0.40;;;20.10;42.60;;;;;;5114762;28;20043;-54
2021/11/22 08:44:02;;;;;;;2.53;0.50;;;20.10;42.70;;;;;;5109603;28;20185;-53
2021/11/22 08:46:29;;;;;;;2.13;0.70;;;20.10;42.60;;;;;;5100243;28;20091;-49
2021/11/22 08:48:54;;;;;;;1.98;0.70;;;20.20;42.60;;;;;;5116551;27;20065;-53
2021/11/22 08:51:20;;;;;;;3.38;0.90;;;20.20;42.50;;;;;;5104195;27;20036;-50
2021/11/22 08:53:46;;;;;;;1.27;0.50;;;20.20;42.50;;;;;;5107360;28;20049;-50
2021/11/22 08:56:12;;;;;;;1.20;0.50;;;20.20;42.50;;;;;;5102806;27;20031;-51
2021/11/22 08:58:37;;;;;;;1.08;0.55;;;20.20;42.50;;;;;;5109896;27;20066;-48
2021/11/22 09:01:03;;;;;;;2.97;0.60;;;20.20;42.50;;;;;;5095019;28;20123;-51
2021/11/22 09:03:29;;;;;;;1.67;0.70;;;20.20;42.50;;;;;;5102253;27;20024;-51
2021/11/22 09:05:54;;;;;;;1.77;0.60;;;20.20;42.50;;;;;;5091643;28;20046;-51
2021/11/22 09:08:20;;;;;;;2.42;0.57;;;20.20;42.60;;;;;;5111662;28;20494;-49
2021/11/22 09:10:46;;;;;;;2.20;0.77;;;20.20;42.30;;;;;;5106174;28;20020;-50
2021/11/22 09:13:14;;;;;;;1.38;0.50;;;20.20;42.40;;;;;;5113532;27;20079;-51
2021/11/22 09:15:39;;;;;;;1.88;0.68;;;20.20;42.40;;;;;;5103265;27;21667;-52
2021/11/22 09:18:05;;;;;;;0.82;0.50;;;20.20;42.40;;;;;;5109613;28;20380;-50
2021/11/22 09:20:30;;;;;;;1.52;0.60;;;20.20;42.50;;;;;;5101226;28;21824;-49
2021/11/22 09:23:01;;;;;;;3.15;0.70;;;20.20;42.40;;;;;;5123638;27;20047;-53
2021/11/22 09:25:28;;;;;;;2.15;0.60;;;20.20;42.40;;;;;;5090900;27;20453;-56
2021/11/22 09:27:55;;;;;;;0.95;0.30;;;20.30;42.40;;;;;;5104302;28;20032;-55
2021/11/22 09:30:21;;;;;;;1.60;0.40;;;20.30;42.20;;;;;;5115408;28;20077;-56
2021/11/22 09:32:47;;;;;;;2.13;0.73;;;20.30;42.40;;;;;;5105858;27;20024;-52
2021/11/22 09:35:13;;;;;;;1.83;0.50;;;20.30;42.40;;;;;;5103646;28;20020;-56
2021/11/22 09:37:39;;;;;;;1.40;0.50;;;20.30;42.30;;;;;;5109938;28;20454;-48
2021/11/22 09:40:07;;;;;;;2.25;0.70;;;20.30;42.20;;;;;;5113393;27;20110;-50
2021/11/22 09:42:32;;;;;;;0.85;0.40;;;20.30;42.10;;;;;;5113141;27;20052;-54
2021/11/22 09:44:59;;;;;;;2.10;0.60;;;20.40;42.10;;;;;;5103131;28;20073;-52
2021/11/22 09:47:25;;;;;;;1.75;0.60;;;20.40;41.90;;;;;;5108046;28;20454;-54
2021/11/22 09:49:54;;;;;;;1.60;0.50;;;20.40;41.90;;;;;;5114084;27;20035;-53
2021/11/22 09:52:25;;;;;;;1.67;0.60;;;20.40;41.90;;;;;;5100390;28;20419;-53
2021/11/22 09:54:50;;;;;;;1.55;0.60;;;20.40;42.00;;;;;;5108945;28;20058;-53
2021/11/22 09:57:16;;;;;;;3.13;0.65;;;20.40;41.80;;;;;;5104033;28;20384;-52
2021/11/22 09:59:43;;;;;;;2.22;0.60;;;20.40;42.00;;;;;;5114087;28;20506;-56
2021/11/22 10:02:09;;;;;;;5.70;0.60;;;20.40;41.90;;;;;;5114542;28;20023;-55
2021/11/22 10:04:34;;;;;;;2.45;0.70;;;20.40;41.70;;;;;;5107115;28;20039;-54
2021/11/22 10:07:03;;;;;;;2.78;0.55;;;20.40;41.60;;;;;;5101731;28;20115;-53
2021/11/22 10:09:35;;;;;;;2.60;0.70;;;20.40;41.50;;;;;;5102639;28;20164;-55
2021/11/22 10:12:04;;;;;;;0.80;0.50;;;20.40;41.70;;;;;;5113929;28;20043;-51
2021/11/22 10:14:39;;;;;;;2.85;0.68;;;20.40;41.70;;;;;;5107601;28;20363;-54
2021/11/22 10:17:27;;;;;;;0.63;0.30;;;20.30;41.80;;;;;;5104939;28;20027;-54
2021/11/22 10:20:08;;;;;;;1.90;0.45;;;20.30;41.70;;;;;;5108295;28;20035;-55
2021/11/22 10:23:00;;;;;;;1.23;0.50;;;20.30;41.90;;;;;;5112449;28;20030;-53
2021/11/22 10:25:37;;;;;;;1.85;0.50;;;20.20;41.90;;;;;;5098370;28;20473;-50
2021/11/22 10:28:13;;;;;;;2.17;0.60;;;20.20;41.70;;;;;;5113379;28;20482;-49
2021/11/22 10:30:46;;;;;;;2.13;0.85;;;20.10;41.90;;;;;;5110181;28;20081;-52
2021/11/22 10:33:15;;;;;;;2.13;0.70;;;20.10;41.70;;;;;;5112046;28;20077;-50
2021/11/22 10:35:41;;;;;;;8.18;1.70;;;20.00;41.90;;;;;;5113630;28;20470;-51
2021/11/22 10:38:16;;;;;;;1.52;0.63;;;20.00;42.00;;;;;;5114117;28;20035;-56
2021/11/22 10:40:52;;;;;;;1.52;0.63;;;20.00;42.00;;;;;;5109654;28;20474;-54
2021/11/22 10:43:18;;;;;;;1.00;0.37;;;20.00;42.00;;;;;;5114005;28;20035;-51
2021/11/22 10:45:50;;;;;;;2.20;0.60;;;19.90;41.90;;;;;;5111155;28;20035;-52
2021/11/22 10:48:27;;;;;;;1.70;0.50;;;19.90;41.90;;;;;;5106199;28;20367;-54
2021/11/22 10:51:19;;;;;;;2.85;0.60;;;19.80;41.90;;;;;;5110240;28;20038;-52
2021/11/22 10:53:47;;;;;;;1.48;0.45;;;19.90;42.10;;;;;;5110378;28;20110;-51
2021/11/22 10:56:16;;;;;;;2.35;0.52;;;19.90;42.20;;;;;;5112610;27;20023;-54
2021/11/22 10:58:44;;;;;;;1.20;0.65;;;19.90;42.10;;;;;;5109614;28;20027;-51
2021/11/22 11:01:19;;;;;;;1.48;0.40;;;20.00;42.10;;;;;;5112480;28;20016;-54
2021/11/22 11:04:07;;;;;;;;;;;20.00;42.00;;;;;;5104610;28;20031;-50
2021/11/22 11:06:50;;;;;;;1.27;0.57;;;20.00;42.00;;;;;;5107479;27;19926;-54
2021/11/22 11:09:29;;;;;;;1.27;0.45;;;20.00;42.10;;;;;;5111856;28;20047;-55
2021/11/22 11:12:07;;;;;;;1.20;0.50;;;20.00;41.90;;;;;;5109038;28;20035;-56
2021/11/22 11:14:35;;;;;;;3.65;0.60;;;20.00;41.90;;;;;;5110537;28;20023;-54
2021/11/22 11:17:22;;;;;;;1.10;0.30;;;20.10;41.80;;;;;;5112477;28;20066;-52
2021/11/22 11:19:52;;;;;;;2.47;0.57;;;20.10;41.70;;;;;;5106922;28;20027;-54
2021/11/22 11:22:18;;;;;;;2.30;0.57;;;20.10;41.80;;;;;;5107115;28;20119;-55
2021/11/22 11:24:44;;;;;;;1.30;0.50;;;20.10;41.60;;;;;;5109463;28;20434;-52
2021/11/22 11:27:10;;;;;;;1.67;0.57;;;20.10;41.40;;;;;;5112187;28;20031;-51
2021/11/22 11:29:36;;;;;;;3.25;0.70;;;20.10;41.50;;;;;;5112494;28;20042;-50
2021/11/22 11:32:02;;;;;;;1.80;0.35;;;20.10;41.50;;;;;;5111212;27;20026;-50
2021/11/22 11:34:32;;;;;;;1.02;0.43;;;20.20;41.70;;;;;;5112595;28;20535;-52
2021/11/22 11:37:10;;;;;;;1.67;0.55;;;20.20;41.70;;;;;;5110183;28;20443;-55
2021/11/22 11:40:09;;;;;;;1.98;0.50;;;20.20;41.60;;;;;;5112064;28;20089;-53
2021/11/22 11:42:56;;;;;;;2.05;0.30;;;20.10;41.80;;;;;;5106611;28;20078;-55
2021/11/22 11:45:46;;;;;;;0.68;0.25;;;20.20;41.70;;;;;;5094697;27;20043;-54
2021/11/22 11:48:55;;;;;;;1.35;0.40;;;20.10;41.80;;;;;;5112080;28;20027;-54
2021/11/22 11:51:28;;;;;;;1.70;0.50;;;20.20;41.50;;;;;;5108346;27;20023;-49
2021/11/22 11:54:04;;;;;;;0.80;0.25;;;20.10;41.40;;;;;;5101756;28;20058;-52
2021/11/22 11:56:42;;;;;;;1.15;0.43;;;20.10;41.50;;;;;;5110723;28;20115;-51
2021/11/22 11:59:22;;;;;;;4.05;0.55;;;20.10;41.10;;;;;;5110739;28;20110;-49
2021/11/22 12:02:04;;;;;;;1.45;0.30;;;20.10;41.40;;;;;;5110108;28;20073;-54
2021/11/22 12:04:50;;;;;;;1.58;0.50;;;20.10;41.60;;;;;;5112229;28;20035;-53
2021/11/22 12:07:25;;;;;;;1.02;0.50;;;20.10;41.50;;;;;;5101618;28;20035;-52
2021/11/22 12:10:07;;;;;;;2.78;0.82;;;20.10;41.50;;;;;;5101953;28;20442;-56
2021/11/22 12:12:35;;;;;;;1.52;0.60;;;20.10;41.40;;;;;;5109778;28;20084;-53
2021/11/22 12:15:17;;;;;;;0.95;0.50;;;20.10;41.30;;;;;;5106546;28;20124;-53
2021/11/22 12:17:43;;;;;;;0.73;0.43;;;20.10;41.40;;;;;;5109908;28;20027;-54
2021/11/22 12:20:34;;;;;;;2.53;0.60;;;20.10;41.30;;;;;;5112480;28;20390;-52
2021/11/22 12:23:09;;;;;;;0.65;0.40;;;20.10;41.40;;;;;;5111730;28;20478;-51
2021/11/22 12:25:42;;;;;;;1.30;0.40;;;20.10;41.60;;;;;;5112267;28;20547;-51
2021/11/22 12:28:15;;;;;;;1.27;0.52;;;20.10;41.50;;;;;;5109506;28;20039;-51
2021/11/22 12:30:43;;;;;;;1.45;0.47;;;20.10;41.40;;;;;;5111379;28;20034;-51
2021/11/22 12:33:23;;;;;;;2.88;0.57;;;20.10;41.30;;;;;;5105240;28;20028;-52
2021/11/22 12:35:56;;;;;;;2.20;0.40;;;20.10;41.50;;;;;;5110451;28;20020;-54
2021/11/22 12:38:21;;;;;;;1.50;0.60;;;20.10;41.40;;;;;;5110629;28;20094;-52
2021/11/22 12:40:49;;;;;;;1.38;0.50;;;20.10;41.50;;;;;;5110018;28;20032;-52
2021/11/22 12:43:15;;;;;;;0.90;0.38;;;20.10;41.50;;;;;;5108484;28;20122;-53
2021/11/22 12:45:55;;;;;;;1.63;0.40;;;20.10;41.30;;;;;;5108829;28;20461;-53
2021/11/22 12:48:34;;;;;;;2.50;0.57;;;20.10;41.20;;;;;;5111492;28;20122;-51
2021/11/22 12:51:03;;;;;;;2.80;0.38;;;20.10;41.20;;;;;;5110128;28;20129;-51
2021/11/22 12:53:29;;;;;;;1.10;0.50;;;20.10;41.30;;;;;;5107874;28;20046;-50